sensor_id;sensor_type;location;lat;lon;timestamp;P1;durP1;ratioP1;P2;durP2;ratioP2
61188;SDS011;47054;39.716;2.904;2022-07-12T00:01:18;12.50;;;4.70;;
61188;SDS011;47054;39.716;2.904;2022-07-12T00:04:03;6.35;;;4.03;;
61188;SDS011;47054;39.716;2.904;2022-07-12T00:06:49;6.70;;;3.30;;
61188;SDS011;47054;39.716;2.904;2022-07-12T00:09:34;8.88;;;3.47;;
61188;SDS011;47054;39.716;2.904;2022-07-12T00:12:18;4.70;;;2.90;;
61188;SDS011;47054;39.716;2.904;2022-07-12T00:15:03;4.75;;;3.25;;
61188;SDS011;47054;39.716;2.904;2022-07-12T00:17:48;4.93;;;3.00;;
61188;SDS011;47054;39.716;2.904;2022-07-12T00:20:32;9.82;;;4.00;;
61188;SDS011;47054;39.716;2.904;2022-07-12T00:23:17;5.57;;;2.80;;
61188;SDS011;47054;39.716;2.904;2022-07-12T00:26:02;7.28;;;3.25;;
61188;SDS011;47054;39.716;2.904;2022-07-12T00:28:48;11.23;;;3.30;;
61188;SDS011;47054;39.716;2.904;2022-07-12T00:31:33;5.60;;;3.78;;
61188;SDS011;47054;39.716;2.904;2022-07-12T00:34:17;6.22;;;3.92;;
61188;SDS011;47054;39.716;2.904;2022-07-12T00:37:02;6.13;;;3.90;;
61188;SDS011;47054;39.716;2.904;2022-07-12T00:39:47;6.03;;;3.88;;
61188;SDS011;47054;39.716;2.904;2022-07-12T00:42:31;9.77;;;4.25;;
61188;SDS011;47054;39.716;2.904;2022-07-12T00:45:16;7.78;;;3.85;;
61188;SDS011;47054;39.716;2.904;2022-07-12T00:48:01;4.90;;;3.10;;
61188;SDS011;47054;39.716;2.904;2022-07-12T00:50:46;7.88;;;3.33;;
61188;SDS011;47054;39.716;2.904;2022-07-12T00:53:31;7.22;;;3.30;;
61188;SDS011;47054;39.716;2.904;2022-07-12T00:56:15;7.93;;;3.08;;
61188;SDS011;47054;39.716;2.904;2022-07-12T00:59:00;4.80;;;2.70;;
61188;SDS011;47054;39.716;2.904;2022-07-12T01:01:44;4.93;;;2.70;;
61188;SDS011;47054;39.716;2.904;2022-07-12T01:04:30;8.50;;;2.67;;
61188;SDS011;47054;39.716;2.904;2022-07-12T01:07:14;4.75;;;2.55;;
61188;SDS011;47054;39.716;2.904;2022-07-12T01:09:59;7.82;;;2.63;;
61188;SDS011;47054;39.716;2.904;2022-07-12T01:12:44;9.27;;;3.00;;
61188;SDS011;47054;39.716;2.904;2022-07-12T01:15:29;4.00;;;2.55;;
61188;SDS011;47054;39.716;2.904;2022-07-12T01:18:14;4.75;;;2.50;;
61188;SDS011;47054;39.716;2.904;2022-07-12T01:21:04;8.00;;;2.60;;
61188;SDS011;47054;39.716;2.904;2022-07-12T01:26:36;4.05;;;2.58;;
61188;SDS011;47054;39.716;2.904;2022-07-12T01:29:20;11.07;;;2.72;;
61188;SDS011;47054;39.716;2.904;2022-07-12T01:32:06;8.48;;;2.50;;
61188;SDS011;47054;39.716;2.904;2022-07-12T01:35:09;4.38;;;2.53;;
61188;SDS011;47054;39.716;2.904;2022-07-12T01:37:54;5.22;;;2.70;;
61188;SDS011;47054;39.716;2.904;2022-07-12T01:40:40;3.55;;;2.60;;
61188;SDS011;47054;39.716;2.904;2022-07-12T01:43:24;7.25;;;2.30;;
61188;SDS011;47054;39.716;2.904;2022-07-12T01:46:08;3.97;;;2.53;;
61188;SDS011;47054;39.716;2.904;2022-07-12T01:48:53;4.60;;;2.67;;
61188;SDS011;47054;39.716;2.904;2022-07-12T01:51:38;6.22;;;2.55;;
61188;SDS011;47054;39.716;2.904;2022-07-12T01:54:23;3.90;;;2.40;;
61188;SDS011;47054;39.716;2.904;2022-07-12T01:57:10;7.63;;;2.13;;
61188;SDS011;47054;39.716;2.904;2022-07-12T01:59:55;3.65;;;2.30;;
61188;SDS011;47054;39.716;2.904;2022-07-12T02:05:46;4.53;;;2.30;;
61188;SDS011;47054;39.716;2.904;2022-07-12T02:08:32;4.80;;;2.22;;
61188;SDS011;47054;39.716;2.904;2022-07-12T02:11:16;7.15;;;2.72;;
61188;SDS011;47054;39.716;2.904;2022-07-12T02:14:01;4.63;;;2.60;;
61188;SDS011;47054;39.716;2.904;2022-07-12T02:16:45;3.67;;;2.40;;
61188;SDS011;47054;39.716;2.904;2022-07-12T02:19:30;3.15;;;2.20;;
61188;SDS011;47054;39.716;2.904;2022-07-12T02:22:14;4.10;;;2.30;;
61188;SDS011;47054;39.716;2.904;2022-07-12T02:25:00;4.68;;;2.50;;
61188;SDS011;47054;39.716;2.904;2022-07-12T02:27:44;4.20;;;2.42;;
61188;SDS011;47054;39.716;2.904;2022-07-12T02:30:29;3.75;;;2.20;;
61188;SDS011;47054;39.716;2.904;2022-07-12T02:33:14;6.18;;;2.38;;
61188;SDS011;47054;39.716;2.904;2022-07-12T02:36:01;3.28;;;2.40;;
61188;SDS011;47054;39.716;2.904;2022-07-12T02:38:47;6.03;;;2.58;;
61188;SDS011;47054;39.716;2.904;2022-07-12T02:41:32;2.88;;;2.10;;
61188;SDS011;47054;39.716;2.904;2022-07-12T02:44:18;6.20;;;2.13;;
61188;SDS011;47054;39.716;2.904;2022-07-12T02:47:02;3.67;;;2.60;;
61188;SDS011;47054;39.716;2.904;2022-07-12T02:49:47;3.92;;;2.53;;
61188;SDS011;47054;39.716;2.904;2022-07-12T02:52:31;5.53;;;2.25;;
61188;SDS011;47054;39.716;2.904;2022-07-12T02:55:16;3.13;;;2.30;;
61188;SDS011;47054;39.716;2.904;2022-07-12T02:58:01;3.83;;;2.28;;
61188;SDS011;47054;39.716;2.904;2022-07-12T03:00:46;6.07;;;2.28;;
61188;SDS011;47054;39.716;2.904;2022-07-12T03:03:30;4.20;;;2.10;;
61188;SDS011;47054;39.716;2.904;2022-07-12T03:06:15;5.80;;;2.40;;
61188;SDS011;47054;39.716;2.904;2022-07-12T03:08:59;6.30;;;2.58;;
61188;SDS011;47054;39.716;2.904;2022-07-12T03:11:44;6.82;;;2.70;;
61188;SDS011;47054;39.716;2.904;2022-07-12T03:14:29;4.72;;;2.45;;
61188;SDS011;47054;39.716;2.904;2022-07-12T03:17:13;4.45;;;2.50;;
61188;SDS011;47054;39.716;2.904;2022-07-12T03:19:58;5.70;;;2.47;;
61188;SDS011;47054;39.716;2.904;2022-07-12T03:22:43;4.15;;;2.30;;
61188;SDS011;47054;39.716;2.904;2022-07-12T03:25:30;5.28;;;2.30;;
61188;SDS011;47054;39.716;2.904;2022-07-12T03:28:15;5.82;;;2.60;;
61188;SDS011;47054;39.716;2.904;2022-07-12T03:30:59;7.10;;;2.35;;
61188;SDS011;47054;39.716;2.904;2022-07-12T03:33:44;5.40;;;2.40;;
61188;SDS011;47054;39.716;2.904;2022-07-12T03:36:28;4.13;;;2.30;;
61188;SDS011;47054;39.716;2.904;2022-07-12T03:39:13;5.00;;;2.40;;
61188;SDS011;47054;39.716;2.904;2022-07-12T03:41:57;4.00;;;2.50;;
61188;SDS011;47054;39.716;2.904;2022-07-12T03:44:41;4.75;;;2.65;;
61188;SDS011;47054;39.716;2.904;2022-07-12T03:47:26;7.15;;;2.50;;
61188;SDS011;47054;39.716;2.904;2022-07-12T03:50:11;4.80;;;2.60;;
61188;SDS011;47054;39.716;2.904;2022-07-12T03:52:57;5.15;;;2.50;;
61188;SDS011;47054;39.716;2.904;2022-07-12T03:55:41;14.80;;;2.83;;
61188;SDS011;47054;39.716;2.904;2022-07-12T03:58:26;5.68;;;2.50;;
61188;SDS011;47054;39.716;2.904;2022-07-12T04:01:10;5.38;;;2.58;;
61188;SDS011;47054;39.716;2.904;2022-07-12T04:03:55;4.00;;;2.67;;
61188;SDS011;47054;39.716;2.904;2022-07-12T04:06:40;3.83;;;2.53;;
61188;SDS011;47054;39.716;2.904;2022-07-12T04:09:24;6.80;;;2.58;;
61188;SDS011;47054;39.716;2.904;2022-07-12T04:12:09;6.35;;;2.50;;
61188;SDS011;47054;39.716;2.904;2022-07-12T04:14:53;5.47;;;2.65;;
61188;SDS011;47054;39.716;2.904;2022-07-12T04:17:38;4.80;;;2.60;;
61188;SDS011;47054;39.716;2.904;2022-07-12T04:20:22;4.72;;;2.50;;
61188;SDS011;47054;39.716;2.904;2022-07-12T04:23:07;5.65;;;2.72;;
61188;SDS011;47054;39.716;2.904;2022-07-12T04:25:53;7.88;;;2.90;;
61188;SDS011;47054;39.716;2.904;2022-07-12T04:28:38;10.52;;;3.00;;
61188;SDS011;47054;39.716;2.904;2022-07-12T04:31:24;10.05;;;3.00;;
61188;SDS011;47054;39.716;2.904;2022-07-12T04:34:08;5.13;;;3.17;;
61188;SDS011;47054;39.716;2.904;2022-07-12T04:36:53;6.85;;;2.80;;
61188;SDS011;47054;39.716;2.904;2022-07-12T04:39:38;5.97;;;2.60;;
61188;SDS011;47054;39.716;2.904;2022-07-12T04:42:22;6.25;;;2.60;;
61188;SDS011;47054;39.716;2.904;2022-07-12T04:45:07;10.32;;;2.63;;
61188;SDS011;47054;39.716;2.904;2022-07-12T04:47:52;6.53;;;2.83;;
61188;SDS011;47054;39.716;2.904;2022-07-12T04:50:37;9.40;;;3.20;;
61188;SDS011;47054;39.716;2.904;2022-07-12T04:53:21;10.50;;;2.92;;
61188;SDS011;47054;39.716;2.904;2022-07-12T04:56:06;6.05;;;3.30;;
61188;SDS011;47054;39.716;2.904;2022-07-12T04:58:51;11.02;;;3.83;;
61188;SDS011;47054;39.716;2.904;2022-07-12T05:01:36;8.07;;;3.72;;
61188;SDS011;47054;39.716;2.904;2022-07-12T05:04:21;9.60;;;3.50;;
61188;SDS011;47054;39.716;2.904;2022-07-12T05:07:05;6.93;;;3.20;;
61188;SDS011;47054;39.716;2.904;2022-07-12T05:09:50;5.05;;;3.17;;
61188;SDS011;47054;39.716;2.904;2022-07-12T05:12:38;13.13;;;3.33;;
61188;SDS011;47054;39.716;2.904;2022-07-12T05:15:23;12.18;;;3.88;;
61188;SDS011;47054;39.716;2.904;2022-07-12T05:18:07;11.52;;;3.35;;
61188;SDS011;47054;39.716;2.904;2022-07-12T05:20:52;21.60;;;3.90;;
61188;SDS011;47054;39.716;2.904;2022-07-12T05:23:37;15.07;;;4.18;;
61188;SDS011;47054;39.716;2.904;2022-07-12T05:26:21;10.57;;;3.15;;
61188;SDS011;47054;39.716;2.904;2022-07-12T05:29:05;18.63;;;3.63;;
61188;SDS011;47054;39.716;2.904;2022-07-12T05:31:50;8.15;;;3.38;;
61188;SDS011;47054;39.716;2.904;2022-07-12T05:34:38;6.97;;;3.30;;
61188;SDS011;47054;39.716;2.904;2022-07-12T05:37:22;9.63;;;2.90;;
61188;SDS011;47054;39.716;2.904;2022-07-12T05:40:10;6.90;;;2.83;;
61188;SDS011;47054;39.716;2.904;2022-07-12T05:42:55;10.50;;;2.80;;
61188;SDS011;47054;39.716;2.904;2022-07-12T05:45:40;4.43;;;2.50;;
61188;SDS011;47054;39.716;2.904;2022-07-12T05:48:26;9.85;;;2.90;;
61188;SDS011;47054;39.716;2.904;2022-07-12T05:51:10;7.45;;;2.78;;
61188;SDS011;47054;39.716;2.904;2022-07-12T05:54:13;6.10;;;2.83;;
61188;SDS011;47054;39.716;2.904;2022-07-12T05:56:58;8.77;;;2.92;;
61188;SDS011;47054;39.716;2.904;2022-07-12T05:59:42;7.80;;;2.80;;
61188;SDS011;47054;39.716;2.904;2022-07-12T06:02:27;9.07;;;2.97;;
61188;SDS011;47054;39.716;2.904;2022-07-12T06:05:12;13.85;;;3.00;;
61188;SDS011;47054;39.716;2.904;2022-07-12T06:07:56;7.30;;;2.88;;
61188;SDS011;47054;39.716;2.904;2022-07-12T06:10:41;8.13;;;3.08;;
61188;SDS011;47054;39.716;2.904;2022-07-12T06:13:25;12.75;;;3.35;;
61188;SDS011;47054;39.716;2.904;2022-07-12T06:16:10;14.82;;;3.13;;
61188;SDS011;47054;39.716;2.904;2022-07-12T06:18:55;9.13;;;3.28;;
61188;SDS011;47054;39.716;2.904;2022-07-12T06:21:40;7.95;;;3.20;;
61188;SDS011;47054;39.716;2.904;2022-07-12T06:24:24;13.70;;;3.60;;
61188;SDS011;47054;39.716;2.904;2022-07-12T06:27:09;15.07;;;3.17;;
61188;SDS011;47054;39.716;2.904;2022-07-12T06:29:53;10.55;;;3.00;;
61188;SDS011;47054;39.716;2.904;2022-07-12T06:32:37;4.53;;;2.72;;
61188;SDS011;47054;39.716;2.904;2022-07-12T06:35:22;5.78;;;2.92;;
61188;SDS011;47054;39.716;2.904;2022-07-12T06:38:07;5.70;;;2.53;;
61188;SDS011;47054;39.716;2.904;2022-07-12T06:40:51;10.10;;;3.03;;
61188;SDS011;47054;39.716;2.904;2022-07-12T06:43:36;10.63;;;2.60;;
61188;SDS011;47054;39.716;2.904;2022-07-12T06:46:20;5.68;;;2.92;;
61188;SDS011;47054;39.716;2.904;2022-07-12T06:49:04;5.28;;;3.10;;
61188;SDS011;47054;39.716;2.904;2022-07-12T06:51:49;8.60;;;2.90;;
61188;SDS011;47054;39.716;2.904;2022-07-12T06:54:33;10.52;;;3.17;;
61188;SDS011;47054;39.716;2.904;2022-07-12T06:57:18;9.90;;;3.20;;
61188;SDS011;47054;39.716;2.904;2022-07-12T07:00:03;6.15;;;2.78;;
61188;SDS011;47054;39.716;2.904;2022-07-12T07:02:50;14.75;;;3.65;;
61188;SDS011;47054;39.716;2.904;2022-07-12T07:05:34;11.13;;;3.35;;
61188;SDS011;47054;39.716;2.904;2022-07-12T07:08:22;9.73;;;3.28;;
61188;SDS011;47054;39.716;2.904;2022-07-12T07:11:06;11.93;;;3.33;;
61188;SDS011;47054;39.716;2.904;2022-07-12T07:13:51;8.52;;;3.00;;
61188;SDS011;47054;39.716;2.904;2022-07-12T07:16:37;5.13;;;3.08;;
61188;SDS011;47054;39.716;2.904;2022-07-12T07:19:22;10.80;;;2.65;;
61188;SDS011;47054;39.716;2.904;2022-07-12T07:22:08;3.97;;;2.85;;
61188;SDS011;47054;39.716;2.904;2022-07-12T07:24:53;7.28;;;3.08;;
61188;SDS011;47054;39.716;2.904;2022-07-12T07:27:38;5.22;;;2.60;;
61188;SDS011;47054;39.716;2.904;2022-07-12T07:30:23;13.95;;;2.95;;
61188;SDS011;47054;39.716;2.904;2022-07-12T07:33:26;6.05;;;2.83;;
61188;SDS011;47054;39.716;2.904;2022-07-12T07:36:10;3.88;;;2.60;;
61188;SDS011;47054;39.716;2.904;2022-07-12T07:38:55;5.55;;;2.50;;
61188;SDS011;47054;39.716;2.904;2022-07-12T07:41:40;5.32;;;2.33;;
61188;SDS011;47054;39.716;2.904;2022-07-12T07:44:25;4.70;;;2.83;;
61188;SDS011;47054;39.716;2.904;2022-07-12T07:47:09;8.98;;;2.53;;
61188;SDS011;47054;39.716;2.904;2022-07-12T07:49:57;5.30;;;2.70;;
61188;SDS011;47054;39.716;2.904;2022-07-12T07:52:41;6.60;;;2.95;;
61188;SDS011;47054;39.716;2.904;2022-07-12T07:55:26;6.35;;;2.88;;
61188;SDS011;47054;39.716;2.904;2022-07-12T07:58:14;5.18;;;2.60;;
61188;SDS011;47054;39.716;2.904;2022-07-12T08:01:00;5.60;;;2.40;;
61188;SDS011;47054;39.716;2.904;2022-07-12T08:03:45;4.22;;;2.72;;
61188;SDS011;47054;39.716;2.904;2022-07-12T08:06:29;4.10;;;2.33;;
61188;SDS011;47054;39.716;2.904;2022-07-12T08:09:14;7.72;;;2.83;;
61188;SDS011;47054;39.716;2.904;2022-07-12T08:11:59;5.47;;;2.70;;
61188;SDS011;47054;39.716;2.904;2022-07-12T08:14:43;8.10;;;3.25;;
61188;SDS011;47054;39.716;2.904;2022-07-12T08:17:28;6.53;;;2.75;;
61188;SDS011;47054;39.716;2.904;2022-07-12T08:20:13;4.38;;;2.78;;
61188;SDS011;47054;39.716;2.904;2022-07-12T08:22:57;8.70;;;2.67;;
61188;SDS011;47054;39.716;2.904;2022-07-12T08:25:41;4.35;;;2.80;;
61188;SDS011;47054;39.716;2.904;2022-07-12T08:28:26;6.47;;;2.95;;
61188;SDS011;47054;39.716;2.904;2022-07-12T08:31:10;5.32;;;2.85;;
61188;SDS011;47054;39.716;2.904;2022-07-12T08:33:57;5.97;;;2.50;;
61188;SDS011;47054;39.716;2.904;2022-07-12T08:36:41;4.82;;;2.50;;
61188;SDS011;47054;39.716;2.904;2022-07-12T08:39:25;3.05;;;2.08;;
61188;SDS011;47054;39.716;2.904;2022-07-12T08:42:12;6.95;;;2.50;;
61188;SDS011;47054;39.716;2.904;2022-07-12T08:44:59;8.18;;;2.80;;
61188;SDS011;47054;39.716;2.904;2022-07-12T08:47:43;8.20;;;2.40;;
61188;SDS011;47054;39.716;2.904;2022-07-12T08:50:28;4.68;;;2.58;;
61188;SDS011;47054;39.716;2.904;2022-07-12T08:53:12;9.65;;;2.67;;
61188;SDS011;47054;39.716;2.904;2022-07-12T08:55:57;4.97;;;2.35;;
61188;SDS011;47054;39.716;2.904;2022-07-12T08:58:42;7.75;;;2.53;;
61188;SDS011;47054;39.716;2.904;2022-07-12T09:01:40;8.90;;;2.55;;
61188;SDS011;47054;39.716;2.904;2022-07-12T09:04:28;8.52;;;2.50;;
61188;SDS011;47054;39.716;2.904;2022-07-12T09:07:13;9.52;;;2.30;;
61188;SDS011;47054;39.716;2.904;2022-07-12T09:10:06;6.55;;;2.90;;
61188;SDS011;47054;39.716;2.904;2022-07-12T09:12:52;6.82;;;2.53;;
61188;SDS011;47054;39.716;2.904;2022-07-12T09:15:37;6.32;;;2.60;;
61188;SDS011;47054;39.716;2.904;2022-07-12T09:18:21;7.85;;;2.60;;
61188;SDS011;47054;39.716;2.904;2022-07-12T09:21:24;15.32;;;2.83;;
61188;SDS011;47054;39.716;2.904;2022-07-12T09:24:13;11.80;;;2.42;;
61188;SDS011;47054;39.716;2.904;2022-07-12T09:27:02;11.85;;;2.70;;
61188;SDS011;47054;39.716;2.904;2022-07-12T09:29:48;4.15;;;2.40;;
61188;SDS011;47054;39.716;2.904;2022-07-12T09:32:34;5.63;;;2.53;;
61188;SDS011;47054;39.716;2.904;2022-07-12T09:35:37;6.55;;;2.70;;
61188;SDS011;47054;39.716;2.904;2022-07-12T09:38:49;4.07;;;2.70;;
61188;SDS011;47054;39.716;2.904;2022-07-12T09:41:34;4.95;;;2.35;;
61188;SDS011;47054;39.716;2.904;2022-07-12T09:44:19;3.85;;;2.30;;
61188;SDS011;47054;39.716;2.904;2022-07-12T09:47:06;6.00;;;2.60;;
61188;SDS011;47054;39.716;2.904;2022-07-12T09:49:56;4.88;;;2.83;;
61188;SDS011;47054;39.716;2.904;2022-07-12T09:52:40;6.57;;;2.80;;
61188;SDS011;47054;39.716;2.904;2022-07-12T09:55:29;8.82;;;3.00;;
61188;SDS011;47054;39.716;2.904;2022-07-12T09:58:19;4.88;;;3.20;;
61188;SDS011;47054;39.716;2.904;2022-07-12T10:01:08;5.53;;;2.90;;
61188;SDS011;47054;39.716;2.904;2022-07-12T10:03:53;6.53;;;2.88;;
61188;SDS011;47054;39.716;2.904;2022-07-12T10:06:39;7.72;;;3.50;;
61188;SDS011;47054;39.716;2.904;2022-07-12T10:09:25;5.93;;;2.97;;
61188;SDS011;47054;39.716;2.904;2022-07-12T10:12:10;6.53;;;3.20;;
61188;SDS011;47054;39.716;2.904;2022-07-12T10:14:57;9.68;;;2.90;;
61188;SDS011;47054;39.716;2.904;2022-07-12T10:17:53;3.53;;;2.65;;
61188;SDS011;47054;39.716;2.904;2022-07-12T10:20:43;5.43;;;2.90;;
61188;SDS011;47054;39.716;2.904;2022-07-12T10:23:30;4.10;;;2.88;;
61188;SDS011;47054;39.716;2.904;2022-07-12T10:26:24;6.20;;;2.72;;
61188;SDS011;47054;39.716;2.904;2022-07-12T10:29:10;5.68;;;2.65;;
61188;SDS011;47054;39.716;2.904;2022-07-12T10:32:06;8.45;;;3.10;;
61188;SDS011;47054;39.716;2.904;2022-07-12T10:35:04;4.13;;;3.00;;
61188;SDS011;47054;39.716;2.904;2022-07-12T10:41:17;6.72;;;3.17;;
61188;SDS011;47054;39.716;2.904;2022-07-12T10:44:08;6.47;;;2.72;;
61188;SDS011;47054;39.716;2.904;2022-07-12T10:46:59;4.57;;;3.00;;
61188;SDS011;47054;39.716;2.904;2022-07-12T10:49:48;6.30;;;3.20;;
61188;SDS011;47054;39.716;2.904;2022-07-12T10:52:35;5.63;;;2.88;;
61188;SDS011;47054;39.716;2.904;2022-07-12T10:55:19;5.47;;;2.88;;
61188;SDS011;47054;39.716;2.904;2022-07-12T10:58:04;6.78;;;3.10;;
61188;SDS011;47054;39.716;2.904;2022-07-12T11:00:49;6.90;;;2.58;;
61188;SDS011;47054;39.716;2.904;2022-07-12T11:03:41;16.35;;;3.10;;
61188;SDS011;47054;39.716;2.904;2022-07-12T11:06:30;5.45;;;2.83;;
61188;SDS011;47054;39.716;2.904;2022-07-12T11:09:20;3.85;;;2.63;;
61188;SDS011;47054;39.716;2.904;2022-07-12T11:12:05;5.95;;;2.50;;
61188;SDS011;47054;39.716;2.904;2022-07-12T11:14:52;4.95;;;2.97;;
61188;SDS011;47054;39.716;2.904;2022-07-12T11:17:37;6.40;;;2.63;;
61188;SDS011;47054;39.716;2.904;2022-07-12T11:20:21;5.90;;;2.70;;
61188;SDS011;47054;39.716;2.904;2022-07-12T11:23:12;4.75;;;2.50;;
61188;SDS011;47054;39.716;2.904;2022-07-12T11:25:58;8.43;;;2.97;;
61188;SDS011;47054;39.716;2.904;2022-07-12T11:28:44;3.65;;;2.20;;
61188;SDS011;47054;39.716;2.904;2022-07-12T11:31:31;3.88;;;2.50;;
61188;SDS011;47054;39.716;2.904;2022-07-12T11:34:25;3.97;;;2.42;;
61188;SDS011;47054;39.716;2.904;2022-07-12T11:37:10;3.97;;;2.58;;
61188;SDS011;47054;39.716;2.904;2022-07-12T11:39:55;3.15;;;2.25;;
61188;SDS011;47054;39.716;2.904;2022-07-12T11:42:51;5.05;;;2.80;;
61188;SDS011;47054;39.716;2.904;2022-07-12T11:45:39;4.57;;;2.83;;
61188;SDS011;47054;39.716;2.904;2022-07-12T11:48:23;4.63;;;2.67;;
61188;SDS011;47054;39.716;2.904;2022-07-12T11:51:09;8.93;;;3.05;;
61188;SDS011;47054;39.716;2.904;2022-07-12T11:53:55;6.68;;;2.95;;
61188;SDS011;47054;39.716;2.904;2022-07-12T11:56:40;4.78;;;2.90;;
61188;SDS011;47054;39.716;2.904;2022-07-12T11:59:25;5.32;;;2.85;;
61188;SDS011;47054;39.716;2.904;2022-07-12T12:02:14;5.57;;;2.60;;
61188;SDS011;47054;39.716;2.904;2022-07-12T12:04:59;3.67;;;2.60;;
61188;SDS011;47054;39.716;2.904;2022-07-12T12:07:44;7.63;;;4.10;;
61188;SDS011;47054;39.716;2.904;2022-07-12T12:10:29;8.52;;;2.60;;
61188;SDS011;47054;39.716;2.904;2022-07-12T12:13:14;6.18;;;2.65;;
61188;SDS011;47054;39.716;2.904;2022-07-12T12:16:02;7.28;;;3.03;;
61188;SDS011;47054;39.716;2.904;2022-07-12T12:18:48;9.15;;;3.28;;
61188;SDS011;47054;39.716;2.904;2022-07-12T12:21:34;6.65;;;3.20;;
61188;SDS011;47054;39.716;2.904;2022-07-12T12:24:18;10.35;;;3.13;;
61188;SDS011;47054;39.716;2.904;2022-07-12T12:27:03;6.80;;;3.00;;
61188;SDS011;47054;39.716;2.904;2022-07-12T12:29:48;8.18;;;3.08;;
61188;SDS011;47054;39.716;2.904;2022-07-12T12:35:54;9.50;;;2.80;;
61188;SDS011;47054;39.716;2.904;2022-07-12T12:38:38;10.18;;;3.20;;
61188;SDS011;47054;39.716;2.904;2022-07-12T12:41:27;9.82;;;2.60;;
61188;SDS011;47054;39.716;2.904;2022-07-12T12:44:14;8.60;;;2.80;;
61188;SDS011;47054;39.716;2.904;2022-07-12T12:47:01;7.28;;;2.85;;
61188;SDS011;47054;39.716;2.904;2022-07-12T12:50:03;15.25;;;2.97;;
61188;SDS011;47054;39.716;2.904;2022-07-12T12:52:48;13.18;;;4.28;;
61188;SDS011;47054;39.716;2.904;2022-07-12T12:55:34;9.10;;;2.60;;
61188;SDS011;47054;39.716;2.904;2022-07-12T12:58:19;4.15;;;2.75;;
61188;SDS011;47054;39.716;2.904;2022-07-12T13:01:05;4.25;;;2.60;;
61188;SDS011;47054;39.716;2.904;2022-07-12T13:03:50;6.60;;;2.78;;
61188;SDS011;47054;39.716;2.904;2022-07-12T13:06:35;4.45;;;2.70;;
61188;SDS011;47054;39.716;2.904;2022-07-12T13:09:20;5.80;;;2.60;;
61188;SDS011;47054;39.716;2.904;2022-07-12T13:12:06;6.32;;;3.17;;
61188;SDS011;47054;39.716;2.904;2022-07-12T13:14:51;3.90;;;2.70;;
61188;SDS011;47054;39.716;2.904;2022-07-12T13:17:37;4.72;;;3.00;;
61188;SDS011;47054;39.716;2.904;2022-07-12T13:20:22;3.80;;;2.70;;
61188;SDS011;47054;39.716;2.904;2022-07-12T13:23:09;5.28;;;2.85;;
61188;SDS011;47054;39.716;2.904;2022-07-12T13:25:54;5.22;;;2.90;;
61188;SDS011;47054;39.716;2.904;2022-07-12T13:28:38;6.13;;;3.10;;
61188;SDS011;47054;39.716;2.904;2022-07-12T13:31:23;5.40;;;2.65;;
61188;SDS011;47054;39.716;2.904;2022-07-12T13:34:10;4.38;;;2.58;;
61188;SDS011;47054;39.716;2.904;2022-07-12T13:36:54;4.38;;;2.88;;
61188;SDS011;47054;39.716;2.904;2022-07-12T13:39:40;8.32;;;2.80;;
61188;SDS011;47054;39.716;2.904;2022-07-12T13:45:28;4.28;;;2.45;;
61188;SDS011;47054;39.716;2.904;2022-07-12T13:48:12;5.50;;;2.60;;
61188;SDS011;47054;39.716;2.904;2022-07-12T13:50:57;4.97;;;2.80;;
61188;SDS011;47054;39.716;2.904;2022-07-12T13:53:42;3.50;;;2.70;;
61188;SDS011;47054;39.716;2.904;2022-07-12T13:56:26;4.20;;;2.88;;
61188;SDS011;47054;39.716;2.904;2022-07-12T13:59:11;5.18;;;2.78;;
61188;SDS011;47054;39.716;2.904;2022-07-12T14:01:56;5.60;;;2.78;;
61188;SDS011;47054;39.716;2.904;2022-07-12T14:04:40;6.88;;;2.67;;
61188;SDS011;47054;39.716;2.904;2022-07-12T14:07:25;4.63;;;2.83;;
61188;SDS011;47054;39.716;2.904;2022-07-12T14:10:10;5.65;;;3.05;;
61188;SDS011;47054;39.716;2.904;2022-07-12T14:12:56;3.40;;;2.60;;
61188;SDS011;47054;39.716;2.904;2022-07-12T14:15:41;5.28;;;2.70;;
61188;SDS011;47054;39.716;2.904;2022-07-12T14:18:27;4.30;;;2.67;;
61188;SDS011;47054;39.716;2.904;2022-07-12T14:21:11;5.65;;;3.03;;
61188;SDS011;47054;39.716;2.904;2022-07-12T14:23:55;5.68;;;2.72;;
61188;SDS011;47054;39.716;2.904;2022-07-12T14:26:43;4.07;;;2.90;;
61188;SDS011;47054;39.716;2.904;2022-07-12T14:29:28;8.85;;;3.38;;
61188;SDS011;47054;39.716;2.904;2022-07-12T14:32:12;6.53;;;2.88;;
61188;SDS011;47054;39.716;2.904;2022-07-12T14:34:57;7.28;;;3.20;;
61188;SDS011;47054;39.716;2.904;2022-07-12T14:37:41;5.00;;;3.08;;
61188;SDS011;47054;39.716;2.904;2022-07-12T14:40:26;5.82;;;3.15;;
61188;SDS011;47054;39.716;2.904;2022-07-12T14:43:11;5.57;;;2.70;;
61188;SDS011;47054;39.716;2.904;2022-07-12T14:45:56;4.57;;;2.97;;
61188;SDS011;47054;39.716;2.904;2022-07-12T14:48:40;4.68;;;2.92;;
61188;SDS011;47054;39.716;2.904;2022-07-12T14:51:24;5.07;;;3.13;;
61188;SDS011;47054;39.716;2.904;2022-07-12T14:54:09;4.85;;;2.55;;
61188;SDS011;47054;39.716;2.904;2022-07-12T14:56:54;5.78;;;2.88;;
61188;SDS011;47054;39.716;2.904;2022-07-12T14:59:38;6.65;;;2.60;;
61188;SDS011;47054;39.716;2.904;2022-07-12T15:02:23;4.38;;;2.67;;
61188;SDS011;47054;39.716;2.904;2022-07-12T15:05:07;5.97;;;2.90;;
61188;SDS011;47054;39.716;2.904;2022-07-12T15:07:52;4.35;;;2.80;;
61188;SDS011;47054;39.716;2.904;2022-07-12T15:10:37;3.88;;;2.70;;
61188;SDS011;47054;39.716;2.904;2022-07-12T15:13:22;5.68;;;2.92;;
61188;SDS011;47054;39.716;2.904;2022-07-12T15:16:08;7.60;;;2.83;;
61188;SDS011;47054;39.716;2.904;2022-07-12T15:18:52;4.80;;;2.70;;
61188;SDS011;47054;39.716;2.904;2022-07-12T15:21:36;4.00;;;2.90;;
61188;SDS011;47054;39.716;2.904;2022-07-12T15:24:22;6.43;;;2.88;;
61188;SDS011;47054;39.716;2.904;2022-07-12T15:27:06;3.80;;;2.88;;
61188;SDS011;47054;39.716;2.904;2022-07-12T15:29:52;5.53;;;2.65;;
61188;SDS011;47054;39.716;2.904;2022-07-12T15:32:37;5.10;;;2.30;;
61188;SDS011;47054;39.716;2.904;2022-07-12T15:35:21;8.70;;;2.97;;
61188;SDS011;47054;39.716;2.904;2022-07-12T15:38:06;5.45;;;3.20;;
61188;SDS011;47054;39.716;2.904;2022-07-12T15:40:50;3.55;;;2.50;;
61188;SDS011;47054;39.716;2.904;2022-07-12T15:43:35;6.15;;;3.38;;
61188;SDS011;47054;39.716;2.904;2022-07-12T15:46:20;5.30;;;2.92;;
61188;SDS011;47054;39.716;2.904;2022-07-12T15:49:04;4.28;;;2.63;;
61188;SDS011;47054;39.716;2.904;2022-07-12T15:51:49;12.30;;;2.70;;
61188;SDS011;47054;39.716;2.904;2022-07-12T15:54:53;6.25;;;2.63;;
61188;SDS011;47054;39.716;2.904;2022-07-12T15:57:38;8.98;;;2.67;;
61188;SDS011;47054;39.716;2.904;2022-07-12T16:00:23;8.63;;;2.88;;
61188;SDS011;47054;39.716;2.904;2022-07-12T16:03:08;9.23;;;3.10;;
61188;SDS011;47054;39.716;2.904;2022-07-12T16:05:53;7.20;;;2.70;;
61188;SDS011;47054;39.716;2.904;2022-07-12T16:08:40;8.45;;;3.00;;
61188;SDS011;47054;39.716;2.904;2022-07-12T16:11:27;7.30;;;2.80;;
61188;SDS011;47054;39.716;2.904;2022-07-12T16:14:12;4.60;;;2.78;;
61188;SDS011;47054;39.716;2.904;2022-07-12T16:16:58;4.43;;;2.80;;
61188;SDS011;47054;39.716;2.904;2022-07-12T16:19:43;5.25;;;2.42;;
61188;SDS011;47054;39.716;2.904;2022-07-12T16:22:30;5.53;;;2.70;;
61188;SDS011;47054;39.716;2.904;2022-07-12T16:25:15;5.25;;;2.78;;
61188;SDS011;47054;39.716;2.904;2022-07-12T16:28:00;4.65;;;2.92;;
61188;SDS011;47054;39.716;2.904;2022-07-12T16:30:45;5.95;;;2.65;;
61188;SDS011;47054;39.716;2.904;2022-07-12T16:33:29;5.90;;;2.58;;
61188;SDS011;47054;39.716;2.904;2022-07-12T16:36:14;3.95;;;2.55;;
61188;SDS011;47054;39.716;2.904;2022-07-12T16:39:01;4.32;;;2.83;;
61188;SDS011;47054;39.716;2.904;2022-07-12T16:41:45;6.25;;;2.60;;
61188;SDS011;47054;39.716;2.904;2022-07-12T16:44:30;6.28;;;2.53;;
61188;SDS011;47054;39.716;2.904;2022-07-12T16:47:14;4.53;;;2.70;;
61188;SDS011;47054;39.716;2.904;2022-07-12T16:49:59;6.20;;;2.70;;
61188;SDS011;47054;39.716;2.904;2022-07-12T16:52:44;4.38;;;2.50;;